createdAt,value
2022-12-19T00:02:26.276Z,9936.00
2022-12-19T00:07:33.486Z,9864.00
2022-12-19T00:12:40.565Z,9864.00
2022-12-19T00:17:47.802Z,9612.00
2022-12-19T00:22:55.090Z,9828.00
2022-12-19T00:28:02.181Z,9756.00
2022-12-19T00:33:09.382Z,9792.00
2022-12-19T00:38:16.709Z,9756.00
2022-12-19T00:43:23.791Z,9792.00
2022-12-19T00:48:31.000Z,9792.00
2022-12-19T00:53:38.313Z,9828.00
2022-12-19T00:58:47.249Z,9792.00
2022-12-19T01:04:26.525Z,1044.00
2022-12-19T01:09:00.012Z,-72.00
2022-12-19T01:14:07.069Z,-72.00
2022-12-19T01:19:14.231Z,-72.00
2022-12-19T01:24:21.594Z,-72.00
2022-12-19T01:29:28.655Z,-72.00
2022-12-19T01:34:35.823Z,-72.00
2022-12-19T01:39:43.167Z,-72.00
2022-12-19T01:44:50.283Z,-72.00
2022-12-19T01:49:57.486Z,-72.00
2022-12-19T01:55:04.775Z,-72.00
2022-12-19T02:00:11.888Z,-72.00
2022-12-19T02:05:19.050Z,-72.00
2022-12-19T02:10:26.367Z,-72.00
2022-12-19T02:15:33.473Z,-72.00
2022-12-19T02:20:40.623Z,-72.00
2022-12-19T02:25:47.908Z,-72.00
2022-12-19T02:30:54.963Z,-72.00
2022-12-19T02:36:02.171Z,-72.00
2022-12-19T02:41:09.522Z,-72.00
2022-12-19T02:46:16.651Z,-36.00
2022-12-19T02:51:23.812Z,-72.00
2022-12-19T02:56:31.154Z,-72.00
2022-12-19T03:01:38.482Z,-72.00
2022-12-19T03:06:45.496Z,-36.00
2022-12-19T03:11:52.854Z,-72.00
2022-12-19T03:17:00.039Z,-72.00
2022-12-19T03:22:07.140Z,-72.00
2022-12-19T03:27:14.458Z,-72.00
2022-12-19T03:32:21.555Z,-72.00
2022-12-19T03:37:28.769Z,-72.00
2022-12-19T03:42:36.060Z,-36.00
2022-12-19T03:47:43.171Z,-72.00
2022-12-19T03:52:50.369Z,-72.00
2022-12-19T03:57:57.633Z,-72.00
2022-12-19T04:03:04.738Z,-72.00
2022-12-19T04:08:11.862Z,-72.00
2022-12-19T04:13:19.222Z,-72.00
2022-12-19T04:18:26.310Z,-72.00
2022-12-19T04:23:33.499Z,-72.00
2022-12-19T04:28:40.838Z,-72.00
2022-12-19T04:33:47.951Z,-72.00
2022-12-19T04:38:55.119Z,-72.00
2022-12-19T04:44:02.451Z,-36.00
2022-12-19T04:49:09.532Z,-72.00
2022-12-19T04:54:16.739Z,-72.00
2022-12-19T04:59:24.057Z,-72.00
2022-12-19T05:04:31.146Z,-72.00
2022-12-19T05:09:38.346Z,-36.00
2022-12-19T05:14:45.650Z,-72.00
2022-12-19T05:19:52.755Z,-72.00
2022-12-19T05:24:59.965Z,-72.00
2022-12-19T05:30:07.246Z,-72.00
2022-12-19T05:35:14.258Z,-72.00
2022-12-19T05:40:21.429Z,-72.00
2022-12-19T05:45:28.703Z,-72.00
2022-12-19T05:50:35.743Z,-36.00
2022-12-19T05:55:42.875Z,-36.00
2022-12-19T06:00:50.199Z,-36.00
2022-12-19T06:05:57.294Z,-72.00
2022-12-19T06:11:04.483Z,-36.00
2022-12-19T06:16:11.872Z,-72.00
2022-12-19T06:21:18.860Z,-72.00
2022-12-19T06:26:26.123Z,-72.00
2022-12-19T06:31:33.500Z,-36.00
2022-12-19T06:36:40.467Z,432.00
2022-12-19T06:41:47.664Z,432.00
2022-12-19T06:46:54.948Z,432.00
2022-12-19T06:52:06.277Z,432.00
2022-12-19T06:57:09.236Z,396.00
2022-12-19T07:02:16.626Z,432.00
2022-12-19T07:07:23.645Z,0.00
2022-12-19T07:12:30.860Z,0.00
2022-12-19T07:17:38.992Z,0.00
2022-12-19T07:22:46.039Z,0.00
2022-12-19T07:27:53.275Z,0.00
2022-12-19T07:33:00.623Z,8964.00
2022-12-19T07:38:07.678Z,9252.00
2022-12-19T07:43:14.884Z,9576.00
2022-12-19T07:48:22.251Z,9756.00
2022-12-19T07:53:29.302Z,10116.00
2022-12-19T07:58:36.459Z,10872.00
2022-12-19T08:03:43.810Z,11268.00
2022-12-19T08:08:50.904Z,11772.00
2022-12-19T08:13:58.117Z,12348.00
2022-12-19T08:19:05.378Z,13320.00
2022-12-19T08:24:12.941Z,13860.00
2022-12-19T08:29:20.125Z,13968.00
2022-12-19T08:34:27.510Z,14400.00
2022-12-19T08:39:34.657Z,14220.00
2022-12-19T08:44:41.919Z,14724.00
2022-12-19T08:49:49.085Z,15192.00
2022-12-19T08:54:56.268Z,15804.00
2022-12-19T09:00:03.476Z,15336.00
2022-12-19T09:06:03.782Z,15840.00
2022-12-19T09:10:17.936Z,16164.00
2022-12-19T09:15:25.108Z,16668.00
2022-12-19T09:20:32.445Z,16848.00
2022-12-19T09:25:39.515Z,16200.00
2022-12-19T09:30:46.838Z,15840.00
2022-12-19T09:35:55.476Z,13536.00
2022-12-19T09:41:01.214Z,13788.00
2022-12-19T09:46:08.461Z,14292.00
2022-12-19T09:51:15.754Z,12996.00
2022-12-19T09:56:22.842Z,12096.00
2022-12-19T10:01:30.234Z,12348.00
2022-12-19T10:07:15.773Z,13716.00
2022-12-19T10:12:43.488Z,15228.00
2022-12-19T10:17:08.916Z,15300.00
2022-12-19T10:22:17.658Z,14940.00
2022-12-19T10:27:06.101Z,13788.00
2022-12-19T10:32:13.375Z,13932.00
2022-12-19T10:37:28.738Z,14868.00
2022-12-19T10:42:28.334Z,15228.00
2022-12-19T10:47:35.594Z,16596.00
2022-12-19T10:52:42.857Z,17136.00
2022-12-19T10:57:49.994Z,17100.00
2022-12-19T11:02:57.457Z,17352.00
2022-12-19T11:08:04.563Z,17460.00
2022-12-19T11:17:35.084Z,17568.00
2022-12-19T11:26:53.925Z,17640.00
2022-12-19T11:30:09.730Z,17280.00
2022-12-19T11:30:40.967Z,17100.00
2022-12-19T11:33:40.572Z,17424.00
2022-12-19T11:38:47.853Z,17460.00
2022-12-19T11:43:54.932Z,17496.00
2022-12-19T11:49:02.109Z,16524.00
2022-12-19T11:54:09.388Z,15552.00
2022-12-19T11:59:16.479Z,15048.00
2022-12-19T12:04:23.745Z,15552.00
2022-12-19T12:14:24.116Z,16380.00
2022-12-19T12:25:09.408Z,16056.00
2022-12-19T12:31:17.815Z,15948.00
2022-12-19T12:31:39.010Z,15372.00
2022-12-19T12:31:46.585Z,15876.00
2022-12-19T12:37:18.797Z,15372.00
2022-12-19T12:40:14.366Z,15552.00
2022-12-19T12:45:21.539Z,15624.00
2022-12-19T12:50:28.862Z,15156.00
2022-12-19T12:55:36.110Z,15192.00
2022-12-19T13:00:43.321Z,15156.00
2022-12-19T13:05:50.532Z,15120.00
2022-12-19T13:10:57.797Z,15408.00
2022-12-19T13:16:04.966Z,15192.00
2022-12-19T13:21:12.171Z,14580.00
2022-12-19T13:26:19.908Z,14112.00
2022-12-19T13:31:26.661Z,14184.00
2022-12-19T13:39:50.478Z,13536.00
2022-12-19T13:41:41.104Z,12888.00
2022-12-19T13:46:48.264Z,11232.00
2022-12-19T13:51:57.359Z,11052.00
2022-12-19T13:57:09.272Z,11376.00
2022-12-19T14:02:10.153Z,11664.00
2022-12-19T14:07:17.179Z,10980.00
2022-12-19T14:13:43.222Z,10332.00
2022-12-19T14:17:31.551Z,9900.00
2022-12-19T14:22:38.727Z,9612.00
2022-12-19T14:28:23.521Z,9468.00
2022-12-19T14:33:47.104Z,8352.00
2022-12-19T14:39:19.332Z,7344.00
2022-12-19T14:43:58.646Z,6768.00
2022-12-19T14:54:06.399Z,6048.00
2022-12-19T14:54:47.650Z,5688.00
2022-12-19T14:58:53.924Z,4968.00
2022-12-19T15:03:36.583Z,3780.00
2022-12-19T15:09:50.758Z,3096.00
2022-12-19T15:14:57.902Z,2520.00
2022-12-19T15:18:58.008Z,1908.00
2022-12-19T15:24:05.192Z,1260.00
2022-12-19T15:29:16.683Z,900.00
2022-12-19T15:34:40.175Z,576.00
2022-12-19T15:39:26.813Z,288.00
2022-12-19T15:44:34.055Z,108.00
2022-12-19T15:49:41.187Z,36.00
2022-12-19T15:54:50.143Z,-36.00
2022-12-19T15:59:55.629Z,-36.00
2022-12-19T16:05:04.568Z,-36.00
2022-12-19T16:10:09.995Z,-72.00
2022-12-19T16:15:17.267Z,-36.00
2022-12-19T16:20:24.613Z,-72.00
2022-12-19T16:25:31.811Z,-72.00
2022-12-19T16:30:39.071Z,-72.00
2022-12-19T16:40:53.552Z,-72.00
2022-12-19T16:46:01.964Z,-72.00
2022-12-19T16:51:07.953Z,-36.00
2022-12-19T16:56:15.174Z,-72.00
2022-12-19T17:01:22.531Z,-72.00
2022-12-19T17:06:29.589Z,-72.00
2022-12-19T17:11:36.830Z,-72.00
2022-12-19T17:16:44.205Z,-72.00
2022-12-19T17:21:51.293Z,-72.00
2022-12-19T17:26:58.506Z,-72.00
2022-12-19T17:32:05.747Z,-36.00
2022-12-19T17:37:12.903Z,-72.00
2022-12-19T17:42:20.188Z,-72.00
2022-12-19T17:47:32.423Z,-36.00
2022-12-19T17:52:41.439Z,-72.00
2022-12-19T17:57:48.671Z,-72.00
2022-12-19T18:02:56.110Z,-72.00
2022-12-19T18:08:05.022Z,-72.00
2022-12-19T18:13:13.986Z,-72.00
2022-12-19T18:18:21.179Z,-72.00
2022-12-19T18:23:28.363Z,-72.00
2022-12-19T18:28:35.580Z,-36.00
2022-12-19T18:33:44.991Z,-72.00
2022-12-19T18:38:52.154Z,-36.00
2022-12-19T18:43:59.639Z,-72.00
2022-12-19T18:49:07.000Z,-36.00
2022-12-19T18:54:16.182Z,-72.00
2022-12-19T18:59:23.366Z,-72.00
2022-12-19T19:04:30.658Z,-72.00
2022-12-19T19:09:38.031Z,-36.00
2022-12-19T19:14:45.453Z,-36.00
2022-12-19T19:19:52.893Z,-72.00
2022-12-19T19:25:00.230Z,-72.00
2022-12-19T19:30:07.481Z,-72.00
2022-12-19T19:35:14.692Z,-72.00
2022-12-19T19:40:24.011Z,-72.00
2022-12-19T19:45:31.224Z,-36.00
2022-12-19T19:50:38.453Z,-72.00
2022-12-19T19:55:45.626Z,-36.00
2022-12-19T20:00:53.150Z,-72.00
2022-12-19T20:06:04.365Z,-72.00
2022-12-19T20:11:11.845Z,-36.00
2022-12-19T20:16:19.353Z,-72.00
2022-12-19T20:21:27.120Z,-36.00
2022-12-19T20:26:36.481Z,-36.00
2022-12-19T20:31:43.774Z,-72.00
2022-12-19T20:36:51.286Z,-72.00
2022-12-19T20:41:58.566Z,-72.00
2022-12-19T20:47:05.878Z,-36.00
2022-12-19T20:52:13.045Z,-36.00
2022-12-19T20:57:20.276Z,-72.00
2022-12-19T21:02:46.284Z,-72.00
2022-12-19T21:07:36.588Z,-72.00
2022-12-19T21:12:47.678Z,-72.00
2022-12-19T21:17:50.854Z,-72.00
2022-12-19T21:22:58.090Z,-72.00
2022-12-19T21:28:05.329Z,-72.00
2022-12-19T21:33:14.387Z,-72.00
2022-12-19T21:38:21.598Z,-36.00
2022-12-19T21:43:28.801Z,-36.00
2022-12-19T21:48:36.011Z,-36.00
2022-12-19T21:53:43.271Z,-72.00
2022-12-19T21:58:50.418Z,-72.00
2022-12-19T22:03:57.848Z,-72.00
2022-12-19T22:09:04.932Z,-72.00
2022-12-19T22:14:12.135Z,-36.00
2022-12-19T22:19:19.325Z,-36.00
2022-12-19T22:24:26.588Z,-72.00
2022-12-19T22:29:33.815Z,-72.00
2022-12-19T22:34:41.046Z,-72.00
2022-12-19T22:39:48.344Z,-72.00
2022-12-19T22:44:55.573Z,-72.00
2022-12-19T22:50:02.771Z,-72.00
2022-12-19T22:55:09.993Z,-72.00
2022-12-19T23:00:17.146Z,-72.00
2022-12-19T23:05:26.893Z,5328.00
2022-12-19T23:10:34.199Z,5256.00
2022-12-19T23:15:41.386Z,5220.00
2022-12-19T23:20:48.598Z,5184.00
2022-12-19T23:25:55.817Z,5220.00
2022-12-19T23:31:03.026Z,5184.00
2022-12-19T23:36:10.285Z,4896.00
2022-12-19T23:41:17.959Z,5040.00
2022-12-19T23:46:25.260Z,4860.00
2022-12-19T23:51:32.346Z,4896.00
2022-12-19T23:56:39.546Z,4860.00
